sensor_id;sensor_type;location;lat;lon;timestamp;temperature;humidity
1988;DHT22;12775;46.994;15.498;2023-08-21T00:01:30;24.50;97.20
1988;DHT22;12775;46.994;15.498;2023-08-21T00:03:56;24.40;98.70
1988;DHT22;12775;46.994;15.498;2023-08-21T00:06:24;24.30;97.80
1988;DHT22;12775;46.994;15.498;2023-08-21T00:08:50;24.30;97.70
1988;DHT22;12775;46.994;15.498;2023-08-21T00:11:18;24.30;97.80
1988;DHT22;12775;46.994;15.498;2023-08-21T00:13:44;24.30;97.60
1988;DHT22;12775;46.994;15.498;2023-08-21T00:16:12;24.30;97.50
1988;DHT22;12775;46.994;15.498;2023-08-21T00:18:39;24.20;97.50
1988;DHT22;12775;46.994;15.498;2023-08-21T00:21:05;24.20;97.90
1988;DHT22;12775;46.994;15.498;2023-08-21T00:23:32;24.20;98.00
1988;DHT22;12775;46.994;15.498;2023-08-21T00:25:59;24.20;98.10
1988;DHT22;12775;46.994;15.498;2023-08-21T00:28:26;24.20;97.70
1988;DHT22;12775;46.994;15.498;2023-08-21T00:30:59;24.10;97.50
1988;DHT22;12775;46.994;15.498;2023-08-21T00:33:19;24.10;97.40
1988;DHT22;12775;46.994;15.498;2023-08-21T00:35:46;24.10;97.60
1988;DHT22;12775;46.994;15.498;2023-08-21T00:38:12;24.10;97.90
1988;DHT22;12775;46.994;15.498;2023-08-21T00:40:39;24.10;98.00
1988;DHT22;12775;46.994;15.498;2023-08-21T00:43:06;24.10;97.90
1988;DHT22;12775;46.994;15.498;2023-08-21T00:45:32;24.00;97.90
1988;DHT22;12775;46.994;15.498;2023-08-21T00:47:59;24.00;97.80
1988;DHT22;12775;46.994;15.498;2023-08-21T00:50:25;24.00;97.50
1988;DHT22;12775;46.994;15.498;2023-08-21T00:52:52;24.00;97.50
1988;DHT22;12775;46.994;15.498;2023-08-21T00:55:18;24.00;97.60
1988;DHT22;12775;46.994;15.498;2023-08-21T00:57:45;23.90;97.60
1988;DHT22;12775;46.994;15.498;2023-08-21T01:00:12;23.90;98.00
1988;DHT22;12775;46.994;15.498;2023-08-21T01:02:39;23.90;97.90
1988;DHT22;12775;46.994;15.498;2023-08-21T01:05:07;23.80;97.80
1988;DHT22;12775;46.994;15.498;2023-08-21T01:07:35;23.80;97.90
1988;DHT22;12775;46.994;15.498;2023-08-21T01:10:03;23.80;97.60
1988;DHT22;12775;46.994;15.498;2023-08-21T01:12:37;23.70;97.60
1988;DHT22;12775;46.994;15.498;2023-08-21T01:15:06;23.70;97.80
1988;DHT22;12775;46.994;15.498;2023-08-21T01:17:34;23.70;97.80
1988;DHT22;12775;46.994;15.498;2023-08-21T01:20:01;23.70;98.00
1988;DHT22;12775;46.994;15.498;2023-08-21T01:22:27;23.60;98.60
1988;DHT22;12775;46.994;15.498;2023-08-21T01:24:54;23.60;98.80
1988;DHT22;12775;46.994;15.498;2023-08-21T01:27:20;23.60;98.30
1988;DHT22;12775;46.994;15.498;2023-08-21T01:29:48;23.60;98.30
1988;DHT22;12775;46.994;15.498;2023-08-21T01:35:03;23.50;98.00
1988;DHT22;12775;46.994;15.498;2023-08-21T01:37:29;23.50;98.00
1988;DHT22;12775;46.994;15.498;2023-08-21T01:39:58;23.50;97.90
1988;DHT22;12775;46.994;15.498;2023-08-21T01:42:24;23.50;98.10
1988;DHT22;12775;46.994;15.498;2023-08-21T01:44:51;23.50;98.00
1988;DHT22;12775;46.994;15.498;2023-08-21T01:47:18;23.40;98.20
1988;DHT22;12775;46.994;15.498;2023-08-21T01:49:44;23.40;98.10
1988;DHT22;12775;46.994;15.498;2023-08-21T01:52:11;23.40;98.10
1988;DHT22;12775;46.994;15.498;2023-08-21T01:54:37;23.40;98.00
1988;DHT22;12775;46.994;15.498;2023-08-21T01:57:04;23.40;98.00
1988;DHT22;12775;46.994;15.498;2023-08-21T01:59:31;23.40;97.90
1988;DHT22;12775;46.994;15.498;2023-08-21T02:01:58;23.40;97.70
1988;DHT22;12775;46.994;15.498;2023-08-21T02:04:25;23.30;97.60
1988;DHT22;12775;46.994;15.498;2023-08-21T02:06:51;23.30;97.80
1988;DHT22;12775;46.994;15.498;2023-08-21T02:09:18;23.30;97.80
1988;DHT22;12775;46.994;15.498;2023-08-21T02:11:45;23.30;98.10
1988;DHT22;12775;46.994;15.498;2023-08-21T02:14:11;23.20;97.80
1988;DHT22;12775;46.994;15.498;2023-08-21T02:16:38;23.20;97.80
1988;DHT22;12775;46.994;15.498;2023-08-21T02:19:04;23.20;97.70
1988;DHT22;12775;46.994;15.498;2023-08-21T02:21:33;23.20;98.10
1988;DHT22;12775;46.994;15.498;2023-08-21T02:23:58;23.20;98.40
1988;DHT22;12775;46.994;15.498;2023-08-21T02:26:25;23.10;98.70
1988;DHT22;12775;46.994;15.498;2023-08-21T02:28:52;23.10;98.90
1988;DHT22;12775;46.994;15.498;2023-08-21T02:31:18;23.10;98.80
1988;DHT22;12775;46.994;15.498;2023-08-21T02:33:45;23.10;98.80
1988;DHT22;12775;46.994;15.498;2023-08-21T02:36:11;23.00;99.00
1988;DHT22;12775;46.994;15.498;2023-08-21T02:38:38;23.10;99.20
1988;DHT22;12775;46.994;15.498;2023-08-21T02:41:05;23.00;98.80
1988;DHT22;12775;46.994;15.498;2023-08-21T02:43:31;23.00;98.80
1988;DHT22;12775;46.994;15.498;2023-08-21T02:45:58;23.10;98.80
1988;DHT22;12775;46.994;15.498;2023-08-21T02:48:24;23.00;98.70
1988;DHT22;12775;46.994;15.498;2023-08-21T02:50:51;23.00;98.70
1988;DHT22;12775;46.994;15.498;2023-08-21T02:53:18;23.00;99.00
1988;DHT22;12775;46.994;15.498;2023-08-21T02:55:44;23.00;99.30
1988;DHT22;12775;46.994;15.498;2023-08-21T02:58:11;23.00;99.10
1988;DHT22;12775;46.994;15.498;2023-08-21T03:00:37;23.00;98.90
1988;DHT22;12775;46.994;15.498;2023-08-21T03:03:04;23.00;98.80
1988;DHT22;12775;46.994;15.498;2023-08-21T03:05:31;22.90;98.60
1988;DHT22;12775;46.994;15.498;2023-08-21T03:07:57;22.90;98.60
1988;DHT22;12775;46.994;15.498;2023-08-21T03:10:24;22.90;98.50
1988;DHT22;12775;46.994;15.498;2023-08-21T03:12:50;22.90;98.20
1988;DHT22;12775;46.994;15.498;2023-08-21T03:15:17;22.90;98.00
1988;DHT22;12775;46.994;15.498;2023-08-21T03:17:44;22.90;98.10
1988;DHT22;12775;46.994;15.498;2023-08-21T03:20:10;22.80;98.10
1988;DHT22;12775;46.994;15.498;2023-08-21T03:22:37;22.80;98.20
1988;DHT22;12775;46.994;15.498;2023-08-21T03:25:04;22.80;98.00
1988;DHT22;12775;46.994;15.498;2023-08-21T03:27:31;22.80;98.10
1988;DHT22;12775;46.994;15.498;2023-08-21T03:29:57;22.80;98.10
1988;DHT22;12775;46.994;15.498;2023-08-21T03:32:24;22.70;98.10
1988;DHT22;12775;46.994;15.498;2023-08-21T03:34:51;22.70;98.40
1988;DHT22;12775;46.994;15.498;2023-08-21T03:37:17;22.70;98.40
1988;DHT22;12775;46.994;15.498;2023-08-21T03:39:44;22.60;98.40
1988;DHT22;12775;46.994;15.498;2023-08-21T03:42:11;22.60;98.20
1988;DHT22;12775;46.994;15.498;2023-08-21T03:44:38;22.70;98.40
1988;DHT22;12775;46.994;15.498;2023-08-21T03:47:04;22.60;98.50
1988;DHT22;12775;46.994;15.498;2023-08-21T03:49:31;22.60;98.40
1988;DHT22;12775;46.994;15.498;2023-08-21T03:51:58;22.60;98.40
1988;DHT22;12775;46.994;15.498;2023-08-21T03:54:24;22.60;98.30
1988;DHT22;12775;46.994;15.498;2023-08-21T03:56:52;22.50;98.20
1988;DHT22;12775;46.994;15.498;2023-08-21T03:59:18;22.50;98.30
1988;DHT22;12775;46.994;15.498;2023-08-21T04:01:45;22.50;98.50
1988;DHT22;12775;46.994;15.498;2023-08-21T04:04:12;22.50;98.60
1988;DHT22;12775;46.994;15.498;2023-08-21T04:06:39;22.40;98.80
1988;DHT22;12775;46.994;15.498;2023-08-21T04:09:06;22.40;98.80
1988;DHT22;12775;46.994;15.498;2023-08-21T04:11:32;22.50;98.70
1988;DHT22;12775;46.994;15.498;2023-08-21T04:13:59;22.40;98.50
1988;DHT22;12775;46.994;15.498;2023-08-21T04:16:25;22.40;98.70
1988;DHT22;12775;46.994;15.498;2023-08-21T04:18:52;22.40;98.90
1988;DHT22;12775;46.994;15.498;2023-08-21T04:21:19;22.30;98.50
1988;DHT22;12775;46.994;15.498;2023-08-21T04:23:45;22.30;98.60
1988;DHT22;12775;46.994;15.498;2023-08-21T04:26:12;22.30;98.60
1988;DHT22;12775;46.994;15.498;2023-08-21T04:28:39;22.20;98.70
1988;DHT22;12775;46.994;15.498;2023-08-21T04:31:05;22.20;99.50
1988;DHT22;12775;46.994;15.498;2023-08-21T04:33:32;22.20;99.90
1988;DHT22;12775;46.994;15.498;2023-08-21T04:35:58;22.10;99.50
1988;DHT22;12775;46.994;15.498;2023-08-21T04:38:25;22.10;99.50
1988;DHT22;12775;46.994;15.498;2023-08-21T04:40:51;22.10;99.90
1988;DHT22;12775;46.994;15.498;2023-08-21T04:43:18;22.10;99.80
1988;DHT22;12775;46.994;15.498;2023-08-21T04:45:47;22.00;99.90
1988;DHT22;12775;46.994;15.498;2023-08-21T04:48:12;22.00;99.90
1988;DHT22;12775;46.994;15.498;2023-08-21T04:50:39;22.00;99.90
1988;DHT22;12775;46.994;15.498;2023-08-21T04:53:05;22.00;99.90
1988;DHT22;12775;46.994;15.498;2023-08-21T04:55:32;22.00;99.90
1988;DHT22;12775;46.994;15.498;2023-08-21T04:57:58;22.00;99.90
1988;DHT22;12775;46.994;15.498;2023-08-21T05:00:25;22.00;99.90
1988;DHT22;12775;46.994;15.498;2023-08-21T05:02:52;22.00;99.90
1988;DHT22;12775;46.994;15.498;2023-08-21T05:05:18;22.00;99.90
1988;DHT22;12775;46.994;15.498;2023-08-21T05:07:45;22.10;99.90
1988;DHT22;12775;46.994;15.498;2023-08-21T05:10:12;22.00;99.90
1988;DHT22;12775;46.994;15.498;2023-08-21T05:12:38;22.10;99.90
1988;DHT22;12775;46.994;15.498;2023-08-21T05:15:05;22.10;99.90
1988;DHT22;12775;46.994;15.498;2023-08-21T05:17:32;22.10;99.90
1988;DHT22;12775;46.994;15.498;2023-08-21T05:19:58;22.20;99.90
1988;DHT22;12775;46.994;15.498;2023-08-21T05:22:25;22.40;99.90
1988;DHT22;12775;46.994;15.498;2023-08-21T05:24:51;22.80;99.90
1988;DHT22;12775;46.994;15.498;2023-08-21T05:27:18;23.30;99.90
1988;DHT22;12775;46.994;15.498;2023-08-21T05:29:45;24.00;99.90
1988;DHT22;12775;46.994;15.498;2023-08-21T05:32:11;24.50;99.90
1988;DHT22;12775;46.994;15.498;2023-08-21T05:34:38;25.00;99.90
1988;DHT22;12775;46.994;15.498;2023-08-21T05:37:04;25.30;99.90
1988;DHT22;12775;46.994;15.498;2023-08-21T05:39:31;25.80;99.90
1988;DHT22;12775;46.994;15.498;2023-08-21T05:41:58;26.00;99.90
1988;DHT22;12775;46.994;15.498;2023-08-21T05:44:24;26.50;99.90
1988;DHT22;12775;46.994;15.498;2023-08-21T05:46:51;27.20;99.90
1988;DHT22;12775;46.994;15.498;2023-08-21T05:49:17;27.60;99.20
1988;DHT22;12775;46.994;15.498;2023-08-21T05:51:44;27.80;98.70
1988;DHT22;12775;46.994;15.498;2023-08-21T05:54:11;27.90;98.60
1988;DHT22;12775;46.994;15.498;2023-08-21T05:56:37;28.20;98.30
1988;DHT22;12775;46.994;15.498;2023-08-21T05:59:05;28.60;98.00
1988;DHT22;12775;46.994;15.498;2023-08-21T06:01:32;28.60;97.90
1988;DHT22;12775;46.994;15.498;2023-08-21T06:03:59;28.70;97.50
1988;DHT22;12775;46.994;15.498;2023-08-21T06:06:27;28.90;97.50
1988;DHT22;12775;46.994;15.498;2023-08-21T06:08:54;29.10;97.40
1988;DHT22;12775;46.994;15.498;2023-08-21T06:11:21;29.20;96.70
1988;DHT22;12775;46.994;15.498;2023-08-21T06:13:49;29.20;96.40
1988;DHT22;12775;46.994;15.498;2023-08-21T06:16:17;29.20;96.90
1988;DHT22;12775;46.994;15.498;2023-08-21T06:18:44;29.40;97.10
1988;DHT22;12775;46.994;15.498;2023-08-21T06:21:12;29.40;96.70
1988;DHT22;12775;46.994;15.498;2023-08-21T06:23:39;29.60;96.90
1988;DHT22;12775;46.994;15.498;2023-08-21T06:26:07;29.60;97.10
1988;DHT22;12775;46.994;15.498;2023-08-21T06:28:34;29.60;97.10
1988;DHT22;12775;46.994;15.498;2023-08-21T06:31:00;29.70;96.30
1988;DHT22;12775;46.994;15.498;2023-08-21T06:33:28;29.80;96.60
1988;DHT22;12775;46.994;15.498;2023-08-21T06:35:54;29.90;96.10
1988;DHT22;12775;46.994;15.498;2023-08-21T06:38:21;29.90;96.10
1988;DHT22;12775;46.994;15.498;2023-08-21T06:40:48;30.00;96.20
1988;DHT22;12775;46.994;15.498;2023-08-21T06:43:14;30.10;95.20
1988;DHT22;12775;46.994;15.498;2023-08-21T06:45:41;30.20;95.20
1988;DHT22;12775;46.994;15.498;2023-08-21T06:48:07;30.30;95.20
1988;DHT22;12775;46.994;15.498;2023-08-21T06:50:36;30.50;97.10
1988;DHT22;12775;46.994;15.498;2023-08-21T06:53:01;30.40;97.00
1988;DHT22;12775;46.994;15.498;2023-08-21T06:55:28;30.60;95.00
1988;DHT22;12775;46.994;15.498;2023-08-21T06:57:55;30.60;94.10
1988;DHT22;12775;46.994;15.498;2023-08-21T07:00:22;30.70;95.10
1988;DHT22;12775;46.994;15.498;2023-08-21T07:02:49;30.70;94.70
1988;DHT22;12775;46.994;15.498;2023-08-21T07:05:15;30.90;94.60
1988;DHT22;12775;46.994;15.498;2023-08-21T07:07:42;30.90;91.80
1988;DHT22;12775;46.994;15.498;2023-08-21T07:10:09;31.00;94.40
1988;DHT22;12775;46.994;15.498;2023-08-21T07:12:35;31.10;94.80
1988;DHT22;12775;46.994;15.498;2023-08-21T07:15:02;31.10;94.50
1988;DHT22;12775;46.994;15.498;2023-08-21T07:17:29;31.30;96.00
1988;DHT22;12775;46.994;15.498;2023-08-21T07:19:55;31.40;94.10
1988;DHT22;12775;46.994;15.498;2023-08-21T07:22:22;31.50;96.00
1988;DHT22;12775;46.994;15.498;2023-08-21T07:24:49;31.50;94.50
1988;DHT22;12775;46.994;15.498;2023-08-21T07:27:15;31.60;95.70
1988;DHT22;12775;46.994;15.498;2023-08-21T07:29:42;31.60;92.60
1988;DHT22;12775;46.994;15.498;2023-08-21T07:32:09;31.70;93.60
1988;DHT22;12775;46.994;15.498;2023-08-21T07:34:36;31.90;93.40
1988;DHT22;12775;46.994;15.498;2023-08-21T07:37:02;31.80;93.30
1988;DHT22;12775;46.994;15.498;2023-08-21T07:39:29;31.90;94.10
1988;DHT22;12775;46.994;15.498;2023-08-21T07:41:56;32.00;93.70
1988;DHT22;12775;46.994;15.498;2023-08-21T07:44:22;32.00;93.80
1988;DHT22;12775;46.994;15.498;2023-08-21T07:46:50;32.20;95.50
1988;DHT22;12775;46.994;15.498;2023-08-21T07:49:17;32.20;92.30
1988;DHT22;12775;46.994;15.498;2023-08-21T07:51:44;32.30;92.70
1988;DHT22;12775;46.994;15.498;2023-08-21T07:54:12;32.40;92.20
1988;DHT22;12775;46.994;15.498;2023-08-21T07:56:39;32.40;89.30
1988;DHT22;12775;46.994;15.498;2023-08-21T07:59:07;32.50;93.40
1988;DHT22;12775;46.994;15.498;2023-08-21T08:01:34;32.60;93.50
1988;DHT22;12775;46.994;15.498;2023-08-21T08:04:01;32.70;91.00
1988;DHT22;12775;46.994;15.498;2023-08-21T08:06:30;32.70;91.00
1988;DHT22;12775;46.994;15.498;2023-08-21T08:08:57;32.60;88.80
1988;DHT22;12775;46.994;15.498;2023-08-21T08:11:24;32.70;90.70
1988;DHT22;12775;46.994;15.498;2023-08-21T08:13:52;32.80;90.50
1988;DHT22;12775;46.994;15.498;2023-08-21T08:16:19;32.80;90.80
1988;DHT22;12775;46.994;15.498;2023-08-21T08:18:46;32.90;90.00
1988;DHT22;12775;46.994;15.498;2023-08-21T08:21:14;32.90;90.90
1988;DHT22;12775;46.994;15.498;2023-08-21T08:23:41;33.00;90.10
1988;DHT22;12775;46.994;15.498;2023-08-21T08:26:09;33.00;90.20
1988;DHT22;12775;46.994;15.498;2023-08-21T08:28:36;33.20;92.10
1988;DHT22;12775;46.994;15.498;2023-08-21T08:31:04;33.20;91.90
1988;DHT22;12775;46.994;15.498;2023-08-21T08:33:31;33.40;90.70
1988;DHT22;12775;46.994;15.498;2023-08-21T08:35:58;33.50;89.60
1988;DHT22;12775;46.994;15.498;2023-08-21T08:38:26;33.60;88.90
1988;DHT22;12775;46.994;15.498;2023-08-21T08:40:53;33.60;90.40
1988;DHT22;12775;46.994;15.498;2023-08-21T08:43:21;33.60;83.60
1988;DHT22;12775;46.994;15.498;2023-08-21T08:45:47;33.60;83.50
1988;DHT22;12775;46.994;15.498;2023-08-21T08:48:14;33.60;90.50
1988;DHT22;12775;46.994;15.498;2023-08-21T08:50:41;33.70;90.80
1988;DHT22;12775;46.994;15.498;2023-08-21T08:53:08;33.80;91.50
1988;DHT22;12775;46.994;15.498;2023-08-21T08:55:34;33.80;89.10
1988;DHT22;12775;46.994;15.498;2023-08-21T08:58:02;33.90;82.90
1988;DHT22;12775;46.994;15.498;2023-08-21T09:00:29;33.90;83.00
1988;DHT22;12775;46.994;15.498;2023-08-21T09:02:55;33.90;85.90
1988;DHT22;12775;46.994;15.498;2023-08-21T09:05:22;33.80;84.90
1988;DHT22;12775;46.994;15.498;2023-08-21T09:08:01;33.90;83.40
1988;DHT22;12775;46.994;15.498;2023-08-21T09:10:24;33.80;82.90
1988;DHT22;12775;46.994;15.498;2023-08-21T09:12:51;33.90;90.50
1988;DHT22;12775;46.994;15.498;2023-08-21T09:15:18;33.90;85.80
1988;DHT22;12775;46.994;15.498;2023-08-21T09:17:52;33.80;80.60
1988;DHT22;12775;46.994;15.498;2023-08-21T09:20:11;33.70;80.70
1988;DHT22;12775;46.994;15.498;2023-08-21T09:22:38;33.80;87.70
1988;DHT22;12775;46.994;15.498;2023-08-21T09:25:06;34.10;83.20
1988;DHT22;12775;46.994;15.498;2023-08-21T09:27:34;34.10;83.20
1988;DHT22;12775;46.994;15.498;2023-08-21T09:32:51;34.10;83.60
1988;DHT22;12775;46.994;15.498;2023-08-21T09:35:03;34.30;82.30
1988;DHT22;12775;46.994;15.498;2023-08-21T09:37:29;34.40;83.10
1988;DHT22;12775;46.994;15.498;2023-08-21T09:40:00;34.60;82.40
1988;DHT22;12775;46.994;15.498;2023-08-21T09:42:23;34.40;76.30
1988;DHT22;12775;46.994;15.498;2023-08-21T09:44:51;34.40;76.30
1988;DHT22;12775;46.994;15.498;2023-08-21T09:47:17;34.40;81.10
1988;DHT22;12775;46.994;15.498;2023-08-21T09:49:44;34.60;77.30
1988;DHT22;12775;46.994;15.498;2023-08-21T09:52:11;34.80;73.60
1988;DHT22;12775;46.994;15.498;2023-08-21T09:54:38;34.80;75.90
1988;DHT22;12775;46.994;15.498;2023-08-21T09:57:05;35.00;72.60
1988;DHT22;12775;46.994;15.498;2023-08-21T09:59:31;35.10;76.70
1988;DHT22;12775;46.994;15.498;2023-08-21T10:01:59;35.30;78.10
1988;DHT22;12775;46.994;15.498;2023-08-21T10:04:27;35.40;79.60
1988;DHT22;12775;46.994;15.498;2023-08-21T10:06:54;35.50;83.90
1988;DHT22;12775;46.994;15.498;2023-08-21T10:09:21;35.90;78.40
1988;DHT22;12775;46.994;15.498;2023-08-21T10:11:48;35.80;78.30
1988;DHT22;12775;46.994;15.498;2023-08-21T10:14:14;36.10;79.50
1988;DHT22;12775;46.994;15.498;2023-08-21T10:19:19;36.50;74.80
1988;DHT22;12775;46.994;15.498;2023-08-21T10:21:47;36.70;78.70
1988;DHT22;12775;46.994;15.498;2023-08-21T10:24:14;36.70;78.70
1988;DHT22;12775;46.994;15.498;2023-08-21T10:26:40;36.80;77.40
1988;DHT22;12775;46.994;15.498;2023-08-21T10:29:06;36.90;78.00
1988;DHT22;12775;46.994;15.498;2023-08-21T10:31:41;37.10;75.30
1988;DHT22;12775;46.994;15.498;2023-08-21T10:34:09;37.20;62.90
1988;DHT22;12775;46.994;15.498;2023-08-21T10:36:38;37.10;68.80
1988;DHT22;12775;46.994;15.498;2023-08-21T10:41:54;36.80;66.00
1988;DHT22;12775;46.994;15.498;2023-08-21T10:44:49;36.70;61.70
1988;DHT22;12775;46.994;15.498;2023-08-21T10:47:20;36.40;62.10
1988;DHT22;12775;46.994;15.498;2023-08-21T10:49:47;36.20;59.50
1988;DHT22;12775;46.994;15.498;2023-08-21T10:52:13;36.20;59.50
1988;DHT22;12775;46.994;15.498;2023-08-21T10:54:43;36.10;59.30
1988;DHT22;12775;46.994;15.498;2023-08-21T10:57:09;35.80;61.20
1988;DHT22;12775;46.994;15.498;2023-08-21T10:59:36;35.70;59.30
1988;DHT22;12775;46.994;15.498;2023-08-21T11:02:02;35.70;62.80
1988;DHT22;12775;46.994;15.498;2023-08-21T11:04:29;35.60;63.10
1988;DHT22;12775;46.994;15.498;2023-08-21T11:06:55;35.60;63.10
1988;DHT22;12775;46.994;15.498;2023-08-21T11:09:22;35.60;63.50
1988;DHT22;12775;46.994;15.498;2023-08-21T11:11:49;35.80;69.30
1988;DHT22;12775;46.994;15.498;2023-08-21T11:14:15;35.70;62.10
1988;DHT22;12775;46.994;15.498;2023-08-21T11:16:42;35.80;67.20
1988;DHT22;12775;46.994;15.498;2023-08-21T11:19:08;35.90;62.60
1988;DHT22;12775;46.994;15.498;2023-08-21T11:21:35;36.00;62.50
1988;DHT22;12775;46.994;15.498;2023-08-21T11:24:02;36.10;69.30
1988;DHT22;12775;46.994;15.498;2023-08-21T11:26:28;36.30;68.00
1988;DHT22;12775;46.994;15.498;2023-08-21T11:28:55;36.40;71.90
1988;DHT22;12775;46.994;15.498;2023-08-21T11:31:21;36.60;70.10
1988;DHT22;12775;46.994;15.498;2023-08-21T11:33:49;36.60;67.70
1988;DHT22;12775;46.994;15.498;2023-08-21T11:36:15;36.90;65.80
1988;DHT22;12775;46.994;15.498;2023-08-21T11:38:42;36.90;60.90
1988;DHT22;12775;46.994;15.498;2023-08-21T11:41:09;36.40;63.90
1988;DHT22;12775;46.994;15.498;2023-08-21T11:43:37;36.60;65.50
1988;DHT22;12775;46.994;15.498;2023-08-21T11:46:03;36.50;60.50
1988;DHT22;12775;46.994;15.498;2023-08-21T11:48:30;36.60;63.80
1988;DHT22;12775;46.994;15.498;2023-08-21T11:50:56;36.70;62.90
1988;DHT22;12775;46.994;15.498;2023-08-21T11:53:32;36.80;58.70
1988;DHT22;12775;46.994;15.498;2023-08-21T11:55:57;36.90;61.30
1988;DHT22;12775;46.994;15.498;2023-08-21T11:58:26;36.90;60.20
1988;DHT22;12775;46.994;15.498;2023-08-21T12:00:51;37.00;63.20
1988;DHT22;12775;46.994;15.498;2023-08-21T12:03:18;37.00;61.40
1988;DHT22;12775;46.994;15.498;2023-08-21T12:05:45;36.90;63.00
1988;DHT22;12775;46.994;15.498;2023-08-21T12:08:12;36.60;61.20
1988;DHT22;12775;46.994;15.498;2023-08-21T12:10:39;36.60;61.10
1988;DHT22;12775;46.994;15.498;2023-08-21T12:13:05;36.50;62.20
1988;DHT22;12775;46.994;15.498;2023-08-21T12:15:32;36.60;68.00
1988;DHT22;12775;46.994;15.498;2023-08-21T12:17:59;36.70;66.80
1988;DHT22;12775;46.994;15.498;2023-08-21T12:20:25;36.90;71.70
1988;DHT22;12775;46.994;15.498;2023-08-21T12:22:52;37.10;67.60
1988;DHT22;12775;46.994;15.498;2023-08-21T12:25:18;37.30;72.90
1988;DHT22;12775;46.994;15.498;2023-08-21T12:27:45;37.40;61.90
1988;DHT22;12775;46.994;15.498;2023-08-21T12:30:13;37.20;61.90
1988;DHT22;12775;46.994;15.498;2023-08-21T12:32:39;37.20;62.20
1988;DHT22;12775;46.994;15.498;2023-08-21T12:35:06;37.20;64.40
1988;DHT22;12775;46.994;15.498;2023-08-21T12:37:33;37.20;65.70
1988;DHT22;12775;46.994;15.498;2023-08-21T12:39:59;37.10;60.50
1988;DHT22;12775;46.994;15.498;2023-08-21T12:42:27;37.20;63.40
1988;DHT22;12775;46.994;15.498;2023-08-21T12:44:53;37.20;63.50
1988;DHT22;12775;46.994;15.498;2023-08-21T12:47:20;37.20;64.80
1988;DHT22;12775;46.994;15.498;2023-08-21T12:49:46;37.20;69.30
1988;DHT22;12775;46.994;15.498;2023-08-21T12:52:13;37.30;67.70
1988;DHT22;12775;46.994;15.498;2023-08-21T12:54:40;37.50;69.40
1988;DHT22;12775;46.994;15.498;2023-08-21T12:57:08;37.60;73.10
1988;DHT22;12775;46.994;15.498;2023-08-21T12:59:34;37.40;64.30
1988;DHT22;12775;46.994;15.498;2023-08-21T13:02:00;37.50;69.40
1988;DHT22;12775;46.994;15.498;2023-08-21T13:04:27;37.50;63.40
1988;DHT22;12775;46.994;15.498;2023-08-21T13:06:53;37.70;68.20
1988;DHT22;12775;46.994;15.498;2023-08-21T13:09:20;37.80;71.20
1988;DHT22;12775;46.994;15.498;2023-08-21T13:11:47;37.90;69.70
1988;DHT22;12775;46.994;15.498;2023-08-21T13:14:14;38.10;70.00
1988;DHT22;12775;46.994;15.498;2023-08-21T13:16:41;38.00;65.20
1988;DHT22;12775;46.994;15.498;2023-08-21T13:19:09;37.90;66.30
1988;DHT22;12775;46.994;15.498;2023-08-21T13:21:36;37.90;69.20
1988;DHT22;12775;46.994;15.498;2023-08-21T13:24:04;38.00;72.10
1988;DHT22;12775;46.994;15.498;2023-08-21T13:26:32;38.10;70.30
1988;DHT22;12775;46.994;15.498;2023-08-21T13:28:58;38.20;66.50
1988;DHT22;12775;46.994;15.498;2023-08-21T13:31:26;38.30;67.90
1988;DHT22;12775;46.994;15.498;2023-08-21T13:33:52;38.30;67.80
1988;DHT22;12775;46.994;15.498;2023-08-21T13:36:19;38.20;63.70
1988;DHT22;12775;46.994;15.498;2023-08-21T13:38:46;37.90;63.80
1988;DHT22;12775;46.994;15.498;2023-08-21T13:41:12;37.90;67.10
1988;DHT22;12775;46.994;15.498;2023-08-21T13:43:39;38.00;68.80
1988;DHT22;12775;46.994;15.498;2023-08-21T13:46:06;38.00;68.40
1988;DHT22;12775;46.994;15.498;2023-08-21T13:48:33;37.90;60.10
1988;DHT22;12775;46.994;15.498;2023-08-21T13:51:00;37.70;67.20
1988;DHT22;12775;46.994;15.498;2023-08-21T13:53:26;37.70;70.20
1988;DHT22;12775;46.994;15.498;2023-08-21T13:55:53;37.60;65.60
1988;DHT22;12775;46.994;15.498;2023-08-21T13:58:20;37.60;65.30
1988;DHT22;12775;46.994;15.498;2023-08-21T14:00:46;37.60;66.70
1988;DHT22;12775;46.994;15.498;2023-08-21T14:03:13;37.60;63.50
1988;DHT22;12775;46.994;15.498;2023-08-21T14:05:40;37.70;63.60
1988;DHT22;12775;46.994;15.498;2023-08-21T14:08:07;37.60;62.80
1988;DHT22;12775;46.994;15.498;2023-08-21T14:10:33;37.60;63.90
1988;DHT22;12775;46.994;15.498;2023-08-21T14:13:00;37.40;62.60
1988;DHT22;12775;46.994;15.498;2023-08-21T14:15:27;37.40;62.90
1988;DHT22;12775;46.994;15.498;2023-08-21T14:17:53;37.40;64.70
1988;DHT22;12775;46.994;15.498;2023-08-21T14:20:21;37.40;63.90
1988;DHT22;12775;46.994;15.498;2023-08-21T14:22:47;37.20;63.60
1988;DHT22;12775;46.994;15.498;2023-08-21T14:25:14;37.40;66.10
1988;DHT22;12775;46.994;15.498;2023-08-21T14:27:41;37.40;61.00
1988;DHT22;12775;46.994;15.498;2023-08-21T14:30:08;37.30;62.20
1988;DHT22;12775;46.994;15.498;2023-08-21T14:32:35;37.20;61.20
1988;DHT22;12775;46.994;15.498;2023-08-21T14:35:01;37.00;60.00
1988;DHT22;12775;46.994;15.498;2023-08-21T14:37:28;36.90;62.50
1988;DHT22;12775;46.994;15.498;2023-08-21T14:39:55;36.70;61.90
1988;DHT22;12775;46.994;15.498;2023-08-21T14:42:22;36.60;61.90
1988;DHT22;12775;46.994;15.498;2023-08-21T14:44:49;36.60;61.30
1988;DHT22;12775;46.994;15.498;2023-08-21T14:47:15;36.50;61.00
1988;DHT22;12775;46.994;15.498;2023-08-21T14:49:42;36.70;69.10
1988;DHT22;12775;46.994;15.498;2023-08-21T14:52:08;36.90;70.40
1988;DHT22;12775;46.994;15.498;2023-08-21T14:54:35;37.10;67.30
1988;DHT22;12775;46.994;15.498;2023-08-21T14:57:02;37.00;62.40
1988;DHT22;12775;46.994;15.498;2023-08-21T14:59:28;36.60;61.10
1988;DHT22;12775;46.994;15.498;2023-08-21T15:01:56;36.60;63.10
1988;DHT22;12775;46.994;15.498;2023-08-21T15:04:22;36.40;65.10
1988;DHT22;12775;46.994;15.498;2023-08-21T15:06:49;36.30;62.40
1988;DHT22;12775;46.994;15.498;2023-08-21T15:09:16;36.40;63.10
1988;DHT22;12775;46.994;15.498;2023-08-21T15:11:42;36.40;66.30
1988;DHT22;12775;46.994;15.498;2023-08-21T15:14:10;36.30;64.70
1988;DHT22;12775;46.994;15.498;2023-08-21T15:16:35;36.10;62.10
1988;DHT22;12775;46.994;15.498;2023-08-21T15:19:02;36.00;63.20
1988;DHT22;12775;46.994;15.498;2023-08-21T15:21:29;35.90;65.80
1988;DHT22;12775;46.994;15.498;2023-08-21T15:23:55;36.00;64.30
1988;DHT22;12775;46.994;15.498;2023-08-21T15:26:22;35.90;64.80
1988;DHT22;12775;46.994;15.498;2023-08-21T15:28:48;35.80;65.20
1988;DHT22;12775;46.994;15.498;2023-08-21T15:31:15;35.70;66.40
1988;DHT22;12775;46.994;15.498;2023-08-21T15:33:42;35.70;65.20
1988;DHT22;12775;46.994;15.498;2023-08-21T15:36:08;35.70;65.40
1988;DHT22;12775;46.994;15.498;2023-08-21T15:38:35;35.70;64.30